Time,TemperatureF,DewpointF,PressureIn,WindDirection,WindDirectionDegrees,WindSpeedMPH,WindSpeedGustMPH,Humidity,HourlyPrecipIn,Conditions,Clouds,dailyrainin,SoftwareType,DateUTC
2013-05-01 00:11:00,65.0,61.0,29.80,SSE,151,0.0,2.0,86,0.00,,,0.00,weatherlink.com 1.10,2013-05-01 05:11:00,
2013-05-01 00:26:00,65.3,61.0,29.80,SE,138,1.0,5.0,85,0.00,,,0.00,weatherlink.com 1.10,2013-05-01 05:26:00,
2013-05-01 00:41:00,65.9,61.0,29.81,SE,134,2.0,5.0,84,0.00,,,0.00,weatherlink.com 1.10,2013-05-01 05:41:00,
2013-05-01 00:56:00,66.7,61.0,29.80,SSE,166,1.0,7.0,82,0.00,,,0.00,weatherlink.com 1.10,2013-05-01 05:56:00,
2013-05-01 01:11:00,66.9,61.0,29.80,East,101,1.0,7.0,82,0.00,,,0.00,weatherlink.com 1.10,2013-05-01 06:11:00,
2013-05-01 01:26:00,66.6,61.0,29.79,SSE,156,1.0,6.0,82,0.00,,,0.00,weatherlink.com 1.10,2013-05-01 06:26:00,
2013-05-01 01:41:00,65.9,61.0,29.78,SE,124,3.0,9.0,84,0.00,,,0.00,weatherlink.com 1.10,2013-05-01 06:41:00,
2013-05-01 01:56:00,65.7,61.0,29.78,SSE,149,5.0,9.0,84,0.00,,,0.00,weatherlink.com 1.10,2013-05-01 06:56:00,
2013-05-01 02:11:00,65.9,61.0,29.79,SSW,197,3.0,11.0,84,0.00,,,0.00,weatherlink.com 1.10,2013-05-01 07:11:00,
2013-05-01 02:26:00,65.6,61.0,29.79,SSW,206,3.0,9.0,85,0.00,,,0.00,weatherlink.com 1.10,2013-05-01 07:26:00,
2013-05-01 02:41:00,65.4,61.0,29.78,SE,141,5.0,7.0,85,0.00,,,0.00,weatherlink.com 1.10,2013-05-01 07:41:00,
2013-05-01 02:56:00,65.2,61.0,29.78,SE,146,3.0,5.0,86,0.00,,,0.00,weatherlink.com 1.10,2013-05-01 07:56:00,
2013-05-01 03:11:00,64.7,61.0,29.77,SSE,166,0.0,4.0,86,0.00,,,0.00,weatherlink.com 1.10,2013-05-01 08:11:00,
2013-05-01 03:26:00,64.0,60.0,29.77,SE,142,1.0,3.0,88,0.00,,,0.00,weatherlink.com 1.10,2013-05-01 08:26:00,
2013-05-01 03:41:00,63.4,60.0,29.77,SE,134,1.0,3.0,89,0.00,,,0.00,weatherlink.com 1.10,2013-05-01 08:41:00,
2013-05-01 03:56:00,63.0,60.0,29.76,SSE,153,2.0,5.0,90,0.00,,,0.00,weatherlink.com 1.10,2013-05-01 08:56:00,
2013-05-01 04:11:00,62.7,60.0,29.76,SE,146,6.0,6.0,91,0.00,,,0.00,weatherlink.com 1.10,2013-05-01 09:11:00,
2013-05-01 04:26:00,62.5,60.0,29.76,ESE,110,1.0,5.0,91,0.00,,,0.00,weatherlink.com 1.10,2013-05-01 09:26:00,
2013-05-01 04:41:00,62.5,60.0,29.76,SE,129,0.0,6.0,92,0.00,,,0.00,weatherlink.com 1.10,2013-05-01 09:41:00,
2013-05-01 04:56:00,62.6,60.0,29.76,SE,142,3.0,8.0,92,0.00,,,0.00,weatherlink.com 1.10,2013-05-01 09:56:00,
2013-05-01 05:11:00,62.8,61.0,29.76,South,175,4.0,6.0,92,0.00,,,0.00,weatherlink.com 1.10,2013-05-01 10:11:00,
2013-05-01 05:26:00,62.9,61.0,29.76,SSE,167,5.0,12.0,92,0.00,,,0.00,weatherlink.com 1.10,2013-05-01 10:26:00,
2013-05-01 05:41:00,63.0,61.0,29.77,SSE,152,4.0,7.0,92,0.00,,,0.00,weatherlink.com 1.10,2013-05-01 10:41:00,
2013-05-01 05:56:00,63.0,61.0,29.77,SE,146,4.0,9.0,92,0.00,,,0.00,weatherlink.com 1.10,2013-05-01 10:56:00,
2013-05-01 06:11:00,64.1,62.0,29.77,ESE,113,5.0,8.0,92,0.00,,,0.00,weatherlink.com 1.10,2013-05-01 11:11:00,
2013-05-01 06:26:00,-999.0,-99.9,29.78,North,-999,-999.0,-999.0,-999,0.00,,,0.00,weatherlink.com 1.10,2013-05-01 11:26:00,
2013-05-01 06:41:00,-999.0,-99.9,29.78,North,-999,-999.0,-999.0,-999,0.00,,,0.00,weatherlink.com 1.10,2013-05-01 11:41:00,
2013-05-01 06:56:00,-999.0,-99.9,29.78,North,-999,-999.0,-999.0,-999,0.00,,,0.00,weatherlink.com 1.10,2013-05-01 11:56:00,
2013-05-01 07:11:00,-999.0,-99.9,29.79,North,-999,-999.0,-999.0,-999,0.00,,,0.00,weatherlink.com 1.10,2013-05-01 12:11:00,
2013-05-01 07:26:00,63.3,61.0,29.79,SSW,204,3.0,12.0,93,0.00,,,0.00,weatherlink.com 1.10,2013-05-01 12:26:00,
2013-05-01 07:41:00,63.7,62.0,29.80,SE,139,9.0,10.0,93,0.00,,,0.00,weatherlink.com 1.10,2013-05-01 12:41:00,
2013-05-01 07:56:00,63.8,62.0,29.82,SE,143,8.0,11.0,92,0.00,,,0.00,weatherlink.com 1.10,2013-05-01 12:56:00,
2013-05-01 08:11:00,63.7,62.0,29.83,SSE,167,5.0,10.0,93,0.00,,,0.00,weatherlink.com 1.10,2013-05-01 13:11:00,
2013-05-01 08:26:00,63.7,62.0,29.83,SE,138,2.0,9.0,93,0.00,,,0.00,weatherlink.com 1.10,2013-05-01 13:26:00,
2013-05-01 08:42:00,63.8,62.0,29.84,SE,131,1.0,6.0,93,0.00,,,0.00,weatherlink.com 1.10,2013-05-01 13:42:00,
2013-05-01 08:57:00,64.2,62.0,29.84,SSE,149,5.0,7.0,93,0.00,,,0.00,weatherlink.com 1.10,2013-05-01 13:57:00,
2013-05-01 09:12:00,64.6,63.0,29.85,SSE,157,2.0,7.0,93,0.00,,,0.00,weatherlink.com 1.10,2013-05-01 14:12:00,
2013-05-01 09:27:00,65.0,63.0,29.86,SE,141,3.0,7.0,93,0.00,,,0.00,weatherlink.com 1.10,2013-05-01 14:27:00,
2013-05-01 09:42:00,65.2,63.0,29.86,SSE,156,2.0,7.0,93,0.00,,,0.00,weatherlink.com 1.10,2013-05-01 14:42:00,
2013-05-01 09:57:00,65.5,63.0,29.86,SE,129,5.0,8.0,92,0.00,,,0.00,weatherlink.com 1.10,2013-05-01 14:57:00,
2013-05-01 10:13:00,65.8,64.0,29.86,SSE,162,6.0,8.0,93,0.00,,,0.00,weatherlink.com 1.10,2013-05-01 15:13:00,
2013-05-01 10:27:00,66.2,64.0,29.87,ESE,104,4.0,9.0,93,0.00,,,0.00,weatherlink.com 1.10,2013-05-01 15:27:00,
2013-05-01 10:42:00,66.9,64.0,29.87,ENE,75,2.0,9.0,91,0.00,,,0.00,weatherlink.com 1.10,2013-05-01 15:42:00,
2013-05-01 10:58:00,67.1,64.0,29.87,SE,141,6.0,9.0,90,0.00,,,0.00,weatherlink.com 1.10,2013-05-01 15:58:00,
2013-05-01 11:12:00,67.5,65.0,29.88,ESE,117,2.0,10.0,90,0.00,,,0.00,weatherlink.com 1.10,2013-05-01 16:12:00,
2013-05-01 11:27:00,68.5,65.0,29.89,SE,140,5.0,10.0,89,0.00,,,0.00,weatherlink.com 1.10,2013-05-01 16:27:00,
2013-05-01 11:42:00,69.3,65.0,29.90,SE,146,4.0,6.0,87,0.00,,,0.00,weatherlink.com 1.10,2013-05-01 16:42:00,
2013-05-01 11:58:00,70.8,66.0,29.90,SE,143,2.0,11.0,84,0.00,,,0.00,weatherlink.com 1.10,2013-05-01 16:58:00,
2013-05-01 12:12:00,71.4,66.0,29.90,South,180,1.0,6.0,83,0.00,,,0.00,weatherlink.com 1.10,2013-05-01 17:12:00,
2013-05-01 12:27:00,72.1,66.0,29.90,SE,130,4.0,5.0,81,0.00,,,0.00,weatherlink.com 1.10,2013-05-01 17:27:00,
2013-05-01 12:42:00,72.7,66.0,29.89,SE,141,7.0,10.0,80,0.00,,,0.00,weatherlink.com 1.10,2013-05-01 17:42:00,
2013-05-01 12:57:00,73.9,67.0,29.89,ESE,115,3.0,7.0,78,0.00,,,0.00,weatherlink.com 1.10,2013-05-01 17:57:00,
2013-05-01 13:12:00,74.7,67.0,29.88,SE,146,4.0,10.0,77,0.00,,,0.00,weatherlink.com 1.10,2013-05-01 18:12:00,
2013-05-01 13:42:00,77.6,67.0,29.88,SSE,162,1.0,11.0,70,0.00,,,0.00,weatherlink.com 1.10,2013-05-01 18:42:00,
2013-05-01 13:57:00,77.9,67.0,29.87,ENE,58,3.0,10.0,70,0.00,,,0.00,weatherlink.com 1.10,2013-05-01 18:57:00,
2013-05-01 14:12:00,79.2,67.0,29.87,SE,131,3.0,12.0,66,0.00,,,0.00,weatherlink.com 1.10,2013-05-01 19:12:00,
2013-05-01 14:27:00,80.3,66.0,29.86,SE,139,6.0,13.0,62,0.00,,,0.00,weatherlink.com 1.10,2013-05-01 19:27:00,
2013-05-01 14:42:00,81.1,66.0,29.87,SE,138,4.0,20.0,60,0.00,,,0.00,weatherlink.com 1.10,2013-05-01 19:42:00,
2013-05-01 14:57:00,82.3,66.0,29.87,NE,56,7.0,13.0,58,0.00,,,0.00,weatherlink.com 1.10,2013-05-01 19:57:00,
2013-05-01 15:12:00,82.6,66.0,29.87,East,99,6.0,14.0,57,0.00,,,0.00,weatherlink.com 1.10,2013-05-01 20:12:00,
2013-05-01 15:27:00,83.6,65.0,29.87,South,172,4.0,15.0,53,0.00,,,0.00,weatherlink.com 1.10,2013-05-01 20:27:00,
2013-05-01 15:42:00,82.5,64.0,29.87,SE,133,6.0,10.0,54,0.00,,,0.00,weatherlink.com 1.10,2013-05-01 20:42:00,
2013-05-01 15:57:00,82.8,64.0,29.87,ESE,117,10.0,12.0,54,0.00,,,0.00,weatherlink.com 1.10,2013-05-01 20:57:00,
2013-05-01 16:12:00,82.0,64.0,29.86,SE,129,7.0,14.0,55,0.00,,,0.00,weatherlink.com 1.10,2013-05-01 21:12:00,
2013-05-01 16:27:00,82.5,64.0,29.86,SSE,156,4.0,10.0,53,0.00,,,0.00,weatherlink.com 1.10,2013-05-01 21:27:00,
2013-05-01 16:57:00,81.9,63.0,29.87,SE,136,3.0,11.0,53,0.00,,,0.00,weatherlink.com 1.10,2013-05-01 21:57:00,
2013-05-01 17:12:00,82.6,63.0,29.88,SE,134,5.0,9.0,52,0.00,,,0.00,weatherlink.com 1.10,2013-05-01 22:12:00,
2013-05-01 17:27:00,83.7,64.0,29.88,SE,131,1.0,6.0,51,0.00,,,0.00,weatherlink.com 1.10,2013-05-01 22:27:00,
2013-05-01 17:42:00,83.9,63.0,29.88,SE,145,3.0,9.0,50,0.00,,,0.00,weatherlink.com 1.10,2013-05-01 22:42:00,
2013-05-01 17:57:00,83.7,63.0,29.88,SE,132,1.0,13.0,49,0.00,,,0.00,weatherlink.com 1.10,2013-05-01 22:57:00,
2013-05-01 18:12:00,81.6,62.0,29.88,SSW,210,0.0,5.0,51,0.00,,,0.00,weatherlink.com 1.10,2013-05-01 23:12:00,
2013-05-01 18:27:00,80.3,63.0,29.89,SSW,192,5.0,10.0,55,0.00,,,0.00,weatherlink.com 1.10,2013-05-01 23:27:00,
2013-05-01 18:42:00,79.1,63.0,29.91,SE,134,0.0,8.0,59,0.00,,,0.00,weatherlink.com 1.10,2013-05-01 23:42:00,
2013-05-01 18:57:00,77.9,64.0,29.91,East,94,1.0,5.0,63,0.00,,,0.00,weatherlink.com 1.10,2013-05-01 23:57:00,
2013-05-01 19:12:00,77.2,65.0,29.92,ESE,118,2.0,4.0,65,0.00,,,0.00,weatherlink.com 1.10,2013-05-02 00:12:00,
2013-05-01 19:27:00,76.6,64.0,29.92,East,88,0.0,5.0,65,0.00,,,0.00,weatherlink.com 1.10,2013-05-02 00:27:00,
2013-05-01 19:42:00,75.8,64.0,29.92,SSE,162,0.0,2.0,67,0.00,,,0.00,weatherlink.com 1.10,2013-05-02 00:42:00,
2013-05-01 19:57:00,75.0,63.0,29.92,SSE,165,5.0,5.0,67,0.00,,,0.00,weatherlink.com 1.10,2013-05-02 00:57:00,
2013-05-01 20:12:00,74.4,63.0,29.93,SSE,149,0.0,3.0,68,0.00,,,0.00,weatherlink.com 1.10,2013-05-02 01:12:00,
2013-05-01 20:28:00,73.8,63.0,29.94,SE,136,1.0,3.0,68,0.00,,,0.00,weatherlink.com 1.10,2013-05-02 01:28:00,
2013-05-01 20:43:00,73.0,62.0,29.94,SSE,156,1.0,2.0,69,0.00,,,0.00,weatherlink.com 1.10,2013-05-02 01:43:00,
2013-05-01 20:58:00,72.3,61.0,29.93,ENE,72,3.0,3.0,68,0.00,,,0.00,weatherlink.com 1.10,2013-05-02 01:58:00,
2013-05-01 21:13:00,72.6,61.0,29.93,ESE,117,2.0,6.0,67,0.00,,,0.00,weatherlink.com 1.10,2013-05-02 02:13:00,
2013-05-01 21:28:00,72.6,61.0,29.95,East,101,0.0,6.0,67,0.00,,,0.00,weatherlink.com 1.10,2013-05-02 02:28:00,
2013-05-01 21:43:00,72.3,61.0,29.96,SE,132,1.0,5.0,67,0.00,,,0.00,weatherlink.com 1.10,2013-05-02 02:43:00,
2013-05-01 21:58:00,71.6,61.0,29.97,North,6,0.0,5.0,69,0.00,,,0.00,weatherlink.com 1.10,2013-05-02 02:58:00,
2013-05-01 22:13:00,71.1,61.0,29.97,ESE,107,0.0,5.0,71,0.00,,,0.00,weatherlink.com 1.10,2013-05-02 03:13:00,
2013-05-01 22:28:00,70.6,61.0,29.98,NNE,18,1.0,4.0,72,0.00,,,0.00,weatherlink.com 1.10,2013-05-02 03:28:00,
2013-05-01 22:43:00,65.4,55.0,30.01,NNE,12,8.0,14.0,69,0.00,,,0.00,weatherlink.com 1.10,2013-05-02 03:43:00,
2013-05-01 22:58:00,60.7,53.0,30.02,North,360,10.0,13.0,75,0.00,,,0.00,weatherlink.com 1.10,2013-05-02 03:58:00,
2013-05-01 23:13:00,58.7,52.0,30.03,NNW,344,11.0,14.0,77,0.00,,,0.00,weatherlink.com 1.10,2013-05-02 04:13:00,
2013-05-01 23:28:00,57.5,51.0,30.04,NE,44,6.0,16.0,78,0.00,,,0.00,weatherlink.com 1.10,2013-05-02 04:28:00,
2013-05-01 23:43:00,55.7,49.0,30.05,NE,54,8.0,15.0,78,0.00,,,0.00,weatherlink.com 1.10,2013-05-02 04:43:00,
2013-05-01 23:58:00,53.7,47.0,30.06,NNW,341,9.0,16.0,79,0.00,,,0.00,weatherlink.com 1.10,2013-05-02 04:58:00,